Pileas I — P3YG9 — position and weather

sailwx.info

Track history (hours):
 
Tides and Currents Weather Stations Pressure Air Temp Water Temp Dewpoint Dewpoint Depression Visibility Wind Speed Wind Dir Waves Ship Positions

Pileas I

Last reported at 2017-Aug-15 00:03 UTC. Time now 2017-Aug-18 12:43 UTC.
Position N 32°60' E 032°47'.

Length 36 m; draft 3.5 m.

Type: Tug. MMSI: 209668000.

Date/timePositionNaut miles runAvg speedWind from/ knotsBaromVisibWave heightAir tempDewpointWater temp
2017-Aug-15 00:03N 32°60' E 032°47'0 7.9
2017-Aug-15 00:00N 33°00' E 032°48'4 7.7
2017-Aug-14 23:30N 33°04' E 032°48'4 7.7
2017-Aug-14 23:00N 33°08' E 032°49'6 7.7
2017-Aug-14 22:16N 33°13' E 032°50'2 7.7
2017-Aug-14 22:00N 33°15' E 032°51'12 7.9
2017-Aug-14 20:29N 33°27' E 032°53'7 8.0
2017-Aug-14 19:34N 33°34' E 032°54'1 8.7
2017-Aug-14 19:30N 33°35' E 032°55'15 8.0
2017-Aug-14 17:39N 33°50' E 032°57'1 8.0
2017-Aug-14 17:30N 33°51' E 032°57'8 8.1
2017-Aug-14 16:33N 33°58' E 032°58'0 8.0
2017-Aug-14 16:30N 33°59' E 032°58'4 8.1
2017-Aug-14 16:00N 34°03' E 032°59'4 8.1
2017-Aug-14 15:30N 34°07' E 032°60'18 7.8
2017-Aug-14 13:09N 34°25' E 033°02'1 7.8
2017-Aug-14 13:00N 34°26' E 033°02'4 7.9
2017-Aug-14 12:30N 34°30' E 033°02'3 6.4
2017-Aug-14 12:00N 34°33' E 033°04'3 6.1
2017-Aug-14 11:30N 34°36' E 033°04'3 5.5
2017-Aug-14 11:00N 34°39' E 033°03'2 4.7
2017-Aug-14 10:30N 34°39' E 033°01'0 0.2
2017-Aug-14 10:00N 34°39' E 033°00'0 0.0
2017-Aug-14 09:30N 34°39' E 033°00'0 0.0
2017-Aug-14 09:00N 34°39' E 033°00'0 0.0
2017-Aug-14 08:30N 34°39' E 033°00'0 0.0
2017-Aug-14 08:00N 34°39' E 033°00'0 0.0
2017-Aug-14 07:30N 34°39' E 033°00'0 0.0
2017-Aug-14 07:00N 34°39' E 033°00'0 0.0
2017-Aug-14 06:30N 34°39' E 033°00'0 0.0
2017-Aug-14 06:00N 34°39' E 033°00'0 0.0
2017-Aug-14 05:30N 34°39' E 033°00'0 0.0
2017-Aug-14 05:00N 34°39' E 033°00'0 0.0
2017-Aug-14 04:30N 34°39' E 033°00'0 0.0
2017-Aug-14 04:00N 34°39' E 033°00'0 0.0
2017-Aug-14 03:30N 34°39' E 033°00'0 0.0
2017-Aug-14 03:00N 34°39' E 033°00'0 0.0
2017-Aug-14 02:30N 34°39' E 033°00'0 0.0
2017-Aug-14 02:00N 34°39' E 033°00'0 0.0
2017-Aug-14 01:30N 34°39' E 033°00'0 0.0
2017-Aug-14 01:00N 34°39' E 033°00'0 0.0
2017-Aug-14 00:30N 34°39' E 033°00'0 0.0
2017-Aug-14 00:00N 34°39' E 033°00'0 0.0
2017-Aug-13 23:30N 34°39' E 033°00'0 0.0
2017-Aug-13 23:00N 34°39' E 033°00'0 0.0
2017-Aug-13 22:30N 34°39' E 033°00'0 0.0
2017-Aug-13 22:00N 34°39' E 033°00'0 0.0
2017-Aug-13 21:30N 34°39' E 033°00'0 0.0
2017-Aug-13 21:00N 34°39' E 033°00'0 0.0
2017-Aug-13 20:30N 34°39' E 033°00'0 0.0
2017-Aug-13 20:00N 34°39' E 033°00'0 0.0
2017-Aug-13 19:30N 34°39' E 033°00'0 0.0
2017-Aug-13 19:00N 34°39' E 033°00'0 0.0
2017-Aug-13 18:30N 34°39' E 033°00'0 0.0
2017-Aug-13 18:00N 34°39' E 033°00'0 0.0
2017-Aug-13 17:30N 34°39' E 033°00'0 0.0
2017-Aug-13 17:00N 34°39' E 033°00'0 0.0
2017-Aug-13 16:30N 34°39' E 033°00'0 0.0
2017-Aug-13 16:00N 34°39' E 033°00'0 0.0
2017-Aug-13 15:30N 34°39' E 033°00'0 0.0
2017-Aug-13 15:00N 34°39' E 033°00'0 0.0
2017-Aug-13 14:30N 34°39' E 033°00'0 0.0
2017-Aug-13 14:00N 34°39' E 033°00'0 0.0
2017-Aug-13 13:30N 34°39' E 033°00'0 0.0
2017-Aug-13 13:00N 34°39' E 033°00'0 0.0
2017-Aug-13 12:30N 34°39' E 033°00'0 0.0
2017-Aug-13 12:00N 34°39' E 033°00'0 0.0
2017-Aug-13 11:30N 34°39' E 033°00'0 0.0
2017-Aug-13 11:00N 34°39' E 033°00'0 0.0
2017-Aug-13 10:30N 34°39' E 033°00'0 0.0
2017-Aug-13 10:00N 34°39' E 033°00'0 0.0
2017-Aug-13 09:30N 34°39' E 033°00'0 0.0
2017-Aug-13 09:00N 34°39' E 033°00'0 0.0
2017-Aug-13 08:30N 34°39' E 033°00'0 0.0
2017-Aug-13 08:00N 34°39' E 033°00'0 0.0
2017-Aug-13 07:30N 34°39' E 033°00'0 0.0
2017-Aug-13 07:00N 34°39' E 033°00'0 0.0
2017-Aug-13 06:30N 34°39' E 033°00'0 0.0
2017-Aug-13 06:00N 34°39' E 033°00'0 0.0
2017-Aug-13 05:30N 34°39' E 033°00'0 0.0
2017-Aug-13 05:00N 34°39' E 033°00'0 0.0
2017-Aug-13 04:30N 34°39' E 033°00'0 0.0
2017-Aug-13 04:00N 34°39' E 033°00'0 0.0
2017-Aug-13 03:30N 34°39' E 033°00'0 0.0
2017-Aug-13 03:00N 34°39' E 033°00'0 0.0
2017-Aug-13 02:30N 34°39' E 033°00'0 0.0
2017-Aug-13 02:00N 34°39' E 033°00'0 0.0
2017-Aug-13 01:30N 34°39' E 033°00'0 0.0
2017-Aug-13 00:59N 34°39' E 033°00'0 0.0
2017-Aug-13 00:30N 34°39' E 033°00'0 0.0
2017-Aug-13 00:00N 34°39' E 033°00'0 0.0
2017-Aug-12 23:30N 34°39' E 033°00'0 0.0
2017-Aug-12 23:00N 34°39' E 033°00'0 0.0
2017-Aug-12 22:30N 34°39' E 033°00'0 0.0
2017-Aug-12 22:00N 34°39' E 033°00'0 0.0
2017-Aug-12 21:30N 34°39' E 033°00'0 0.0
2017-Aug-12 21:00N 34°39' E 033°00'0 0.0
2017-Aug-12 20:30N 34°39' E 033°00'0 0.0
2017-Aug-12 20:00N 34°39' E 033°00'0 0.0
2017-Aug-12 19:30N 34°39' E 033°00'0 0.0
2017-Aug-12 19:00N 34°39' E 033°00'0 0.0
2017-Aug-12 18:30N 34°39' E 033°00'0 0.0
2017-Aug-12 18:00N 34°39' E 033°00'0 0.0
2017-Aug-12 17:30N 34°39' E 033°00'0 0.0
2017-Aug-12 17:00N 34°39' E 033°00'0 0.0
2017-Aug-12 16:30N 34°39' E 033°00'0 0.0
2017-Aug-12 16:00N 34°39' E 033°00'0 0.0
2017-Aug-12 15:30N 34°39' E 033°00'0 0.0
2017-Aug-12 15:00N 34°39' E 033°00'0 0.0
2017-Aug-12 14:30N 34°39' E 033°00'0 0.0
2017-Aug-12 14:00N 34°39' E 033°00'0 0.0
2017-Aug-12 13:30N 34°39' E 033°00'0 0.0
2017-Aug-12 13:00N 34°39' E 033°00'0 0.0
2017-Aug-12 12:30N 34°39' E 033°00'0 0.0
2017-Aug-12 12:00N 34°39' E 033°00'0 0.0
2017-Aug-12 11:30N 34°39' E 033°00'0 0.0
2017-Aug-12 11:00N 34°39' E 033°00'0 0.0
2017-Aug-12 10:30N 34°39' E 033°00'0 0.0
2017-Aug-12 10:00N 34°39' E 033°00'0 0.0
2017-Aug-12 09:30N 34°39' E 033°00'0 0.0
2017-Aug-12 09:00N 34°39' E 033°00'0 0.0
2017-Aug-12 08:30N 34°39' E 033°00'0 0.0
2017-Aug-12 08:00N 34°39' E 033°00'0 0.0
2017-Aug-12 07:30N 34°39' E 033°00'0 0.0
2017-Aug-12 07:00N 34°39' E 033°00'0 0.0
2017-Aug-12 06:30N 34°39' E 033°00'0 0.0
2017-Aug-12 06:00N 34°39' E 033°00'0 0.0
2017-Aug-12 05:30N 34°39' E 033°00'0 0.0
2017-Aug-12 05:00N 34°39' E 033°00'0 0.0
2017-Aug-12 04:30N 34°39' E 033°00'0 0.0
2017-Aug-12 04:00N 34°39' E 033°00'0 0.0
2017-Aug-12 03:30N 34°39' E 033°00'0 0.0
2017-Aug-12 03:00N 34°39' E 033°00'0 0.0
2017-Aug-12 02:30N 34°39' E 033°00'0 0.0
2017-Aug-12 02:00N 34°39' E 033°00'0 0.0
2017-Aug-12 01:30N 34°39' E 033°00'0 0.0
2017-Aug-12 01:00N 34°39' E 033°00'0 0.0
2017-Aug-12 00:30N 34°39' E 033°00'0 0.0
2017-Aug-12 00:00N 34°39' E 033°00'0 0.0
2017-Aug-11 23:30N 34°39' E 033°00'0 0.0
2017-Aug-11 23:00N 34°39' E 033°00'0 0.0
2017-Aug-11 22:30N 34°39' E 033°00'0 0.0
2017-Aug-11 22:00N 34°39' E 033°00'0 0.0
2017-Aug-11 21:30N 34°39' E 033°00'0 0.0
2017-Aug-11 21:00N 34°39' E 033°00'0 0.0
2017-Aug-11 20:30N 34°39' E 033°00'0 0.0
2017-Aug-11 20:00N 34°39' E 033°00'0 0.0
2017-Aug-11 19:30N 34°39' E 033°00'0 0.0
2017-Aug-11 19:00N 34°39' E 033°00'0 0.0
2017-Aug-11 18:30N 34°39' E 033°00'0 0.0
2017-Aug-11 18:00N 34°39' E 033°00'0 0.0
2017-Aug-11 17:30N 34°39' E 033°00'0 0.0
2017-Aug-11 17:00N 34°39' E 033°00'0 0.0
2017-Aug-11 16:30N 34°39' E 033°00'0 0.0
2017-Aug-11 16:00N 34°39' E 033°00'0 0.0
2017-Aug-11 15:30N 34°39' E 033°00'0 0.0
2017-Aug-11 14:59N 34°39' E 033°00'0 0.0
2017-Aug-11 14:30N 34°39' E 033°00'0 0.0
2017-Aug-11 13:30N 34°39' E 033°00'0 0.0
2017-Aug-11 13:00N 34°39' E 033°00'0 0.0
2017-Aug-11 12:30N 34°39' E 033°00'0 0.0
2017-Aug-11 12:00N 34°39' E 033°00'0 0.0
2017-Aug-11 11:30N 34°39' E 033°00'0 0.0
2017-Aug-11 11:00N 34°39' E 033°00'0 0.0
2017-Aug-11 10:30N 34°39' E 033°00'0 0.0
2017-Aug-11 10:00N 34°39' E 033°00'0 0.0
2017-Aug-11 09:30N 34°39' E 033°00'  
Track history (hours):
 
Tides and Currents Weather Stations Pressure Air Temp Water Temp Dewpoint Dewpoint Depression Visibility Wind Speed Wind Dir Waves Ship Positions

Pileas I

Last reported at 2017-Aug-15 00:03 UTC. Time now 2017-Aug-18 12:43 UTC.
Position N 32°60' E 032°47'.

Length 36 m; draft 3.5 m.

Type: Tug. MMSI: 209668000.

Date/timePositionNaut miles runAvg speedWind from/ knotsBaromVisibWave heightAir tempDewpointWater temp
2017-Aug-15 00:03N 32°60' E 032°47'0 7.9
2017-Aug-15 00:00N 33°00' E 032°48'4 7.7
2017-Aug-14 23:30N 33°04' E 032°48'4 7.7
2017-Aug-14 23:00N 33°08' E 032°49'6 7.7
2017-Aug-14 22:16N 33°13' E 032°50'2 7.7
2017-Aug-14 22:00N 33°15' E 032°51'12 7.9
2017-Aug-14 20:29N 33°27' E 032°53'7 8.0
2017-Aug-14 19:34N 33°34' E 032°54'1 8.7
2017-Aug-14 19:30N 33°35' E 032°55'15 8.0
2017-Aug-14 17:39N 33°50' E 032°57'1 8.0
2017-Aug-14 17:30N 33°51' E 032°57'8 8.1
2017-Aug-14 16:33N 33°58' E 032°58'0 8.0
2017-Aug-14 16:30N 33°59' E 032°58'4 8.1
2017-Aug-14 16:00N 34°03' E 032°59'4 8.1
2017-Aug-14 15:30N 34°07' E 032°60'18 7.8
2017-Aug-14 13:09N 34°25' E 033°02'1 7.8
2017-Aug-14 13:00N 34°26' E 033°02'4 7.9
2017-Aug-14 12:30N 34°30' E 033°02'3 6.4
2017-Aug-14 12:00N 34°33' E 033°04'3 6.1
2017-Aug-14 11:30N 34°36' E 033°04'3 5.5
2017-Aug-14 11:00N 34°39' E 033°03'2 4.7
2017-Aug-14 10:30N 34°39' E 033°01'0 0.2
2017-Aug-14 10:00N 34°39' E 033°00'0 0.0
2017-Aug-14 09:30N 34°39' E 033°00'0 0.0
2017-Aug-14 09:00N 34°39' E 033°00'0 0.0
2017-Aug-14 08:30N 34°39' E 033°00'0 0.0
2017-Aug-14 08:00N 34°39' E 033°00'0 0.0
2017-Aug-14 07:30N 34°39' E 033°00'0 0.0
2017-Aug-14 07:00N 34°39' E 033°00'0 0.0
2017-Aug-14 06:30N 34°39' E 033°00'0 0.0
2017-Aug-14 06:00N 34°39' E 033°00'0 0.0
2017-Aug-14 05:30N 34°39' E 033°00'0 0.0
2017-Aug-14 05:00N 34°39' E 033°00'0 0.0
2017-Aug-14 04:30N 34°39' E 033°00'0 0.0
2017-Aug-14 04:00N 34°39' E 033°00'0 0.0
2017-Aug-14 03:30N 34°39' E 033°00'0 0.0
2017-Aug-14 03:00N 34°39' E 033°00'0 0.0
2017-Aug-14 02:30N 34°39' E 033°00'0 0.0
2017-Aug-14 02:00N 34°39' E 033°00'0 0.0
2017-Aug-14 01:30N 34°39' E 033°00'0 0.0
2017-Aug-14 01:00N 34°39' E 033°00'0 0.0
2017-Aug-14 00:30N 34°39' E 033°00'0 0.0
2017-Aug-14 00:00N 34°39' E 033°00'0 0.0
2017-Aug-13 23:30N 34°39' E 033°00'0 0.0
2017-Aug-13 23:00N 34°39' E 033°00'0 0.0
2017-Aug-13 22:30N 34°39' E 033°00'0 0.0
2017-Aug-13 22:00N 34°39' E 033°00'0 0.0
2017-Aug-13 21:30N 34°39' E 033°00'0 0.0
2017-Aug-13 21:00N 34°39' E 033°00'0 0.0
2017-Aug-13 20:30N 34°39' E 033°00'0 0.0
2017-Aug-13 20:00N 34°39' E 033°00'0 0.0
2017-Aug-13 19:30N 34°39' E 033°00'0 0.0
2017-Aug-13 19:00N 34°39' E 033°00'0 0.0
2017-Aug-13 18:30N 34°39' E 033°00'0 0.0
2017-Aug-13 18:00N 34°39' E 033°00'0 0.0
2017-Aug-13 17:30N 34°39' E 033°00'0 0.0
2017-Aug-13 17:00N 34°39' E 033°00'0 0.0
2017-Aug-13 16:30N 34°39' E 033°00'0 0.0
2017-Aug-13 16:00N 34°39' E 033°00'0 0.0
2017-Aug-13 15:30N 34°39' E 033°00'0 0.0
2017-Aug-13 15:00N 34°39' E 033°00'0 0.0
2017-Aug-13 14:30N 34°39' E 033°00'0 0.0
2017-Aug-13 14:00N 34°39' E 033°00'0 0.0
2017-Aug-13 13:30N 34°39' E 033°00'0 0.0
2017-Aug-13 13:00N 34°39' E 033°00'0 0.0
2017-Aug-13 12:30N 34°39' E 033°00'0 0.0
2017-Aug-13 12:00N 34°39' E 033°00'0 0.0
2017-Aug-13 11:30N 34°39' E 033°00'0 0.0
2017-Aug-13 11:00N 34°39' E 033°00'0 0.0
2017-Aug-13 10:30N 34°39' E 033°00'0 0.0
2017-Aug-13 10:00N 34°39' E 033°00'0 0.0
2017-Aug-13 09:30N 34°39' E 033°00'0 0.0
2017-Aug-13 09:00N 34°39' E 033°00'0 0.0
2017-Aug-13 08:30N 34°39' E 033°00'0 0.0
2017-Aug-13 08:00N 34°39' E 033°00'0 0.0
2017-Aug-13 07:30N 34°39' E 033°00'0 0.0
2017-Aug-13 07:00N 34°39' E 033°00'0 0.0
2017-Aug-13 06:30N 34°39' E 033°00'0 0.0
2017-Aug-13 06:00N 34°39' E 033°00'0 0.0
2017-Aug-13 05:30N 34°39' E 033°00'0 0.0
2017-Aug-13 05:00N 34°39' E 033°00'0 0.0
2017-Aug-13 04:30N 34°39' E 033°00'0 0.0
2017-Aug-13 04:00N 34°39' E 033°00'0 0.0
2017-Aug-13 03:30N 34°39' E 033°00'0 0.0
2017-Aug-13 03:00N 34°39' E 033°00'0 0.0
2017-Aug-13 02:30N 34°39' E 033°00'0 0.0
2017-Aug-13 02:00N 34°39' E 033°00'0 0.0
2017-Aug-13 01:30N 34°39' E 033°00'0 0.0
2017-Aug-13 00:59N 34°39' E 033°00'0 0.0
2017-Aug-13 00:30N 34°39' E 033°00'0 0.0
2017-Aug-13 00:00N 34°39' E 033°00'0 0.0
2017-Aug-12 23:30N 34°39' E 033°00'0 0.0
2017-Aug-12 23:00N 34°39' E 033°00'0 0.0
2017-Aug-12 22:30N 34°39' E 033°00'0 0.0
2017-Aug-12 22:00N 34°39' E 033°00'0 0.0
2017-Aug-12 21:30N 34°39' E 033°00'0 0.0
2017-Aug-12 21:00N 34°39' E 033°00'0 0.0
2017-Aug-12 20:30N 34°39' E 033°00'0 0.0
2017-Aug-12 20:00N 34°39' E 033°00'0 0.0
2017-Aug-12 19:30N 34°39' E 033°00'0 0.0
2017-Aug-12 19:00N 34°39' E 033°00'0 0.0
2017-Aug-12 18:30N 34°39' E 033°00'0 0.0
2017-Aug-12 18:00N 34°39' E 033°00'0 0.0
2017-Aug-12 17:30N 34°39' E 033°00'0 0.0
2017-Aug-12 17:00N 34°39' E 033°00'0 0.0
2017-Aug-12 16:30N 34°39' E 033°00'0 0.0
2017-Aug-12 16:00N 34°39' E 033°00'0 0.0
2017-Aug-12 15:30N 34°39' E 033°00'0 0.0
2017-Aug-12 15:00N 34°39' E 033°00'0 0.0
2017-Aug-12 14:30N 34°39' E 033°00'0 0.0
2017-Aug-12 14:00N 34°39' E 033°00'0 0.0
2017-Aug-12 13:30N 34°39' E 033°00'0 0.0
2017-Aug-12 13:00N 34°39' E 033°00'0 0.0
2017-Aug-12 12:30N 34°39' E 033°00'0 0.0
2017-Aug-12 12:00N 34°39' E 033°00'0 0.0
2017-Aug-12 11:30N 34°39' E 033°00'0 0.0
2017-Aug-12 11:00N 34°39' E 033°00'0 0.0
2017-Aug-12 10:30N 34°39' E 033°00'0 0.0
2017-Aug-12 10:00N 34°39' E 033°00'0 0.0
2017-Aug-12 09:30N 34°39' E 033°00'0 0.0
2017-Aug-12 09:00N 34°39' E 033°00'0 0.0
2017-Aug-12 08:30N 34°39' E 033°00'0 0.0
2017-Aug-12 08:00N 34°39' E 033°00'0 0.0
2017-Aug-12 07:30N 34°39' E 033°00'0 0.0
2017-Aug-12 07:00N 34°39' E 033°00'0 0.0
2017-Aug-12 06:30N 34°39' E 033°00'0 0.0
2017-Aug-12 06:00N 34°39' E 033°00'0 0.0
2017-Aug-12 05:30N 34°39' E 033°00'0 0.0
2017-Aug-12 05:00N 34°39' E 033°00'0 0.0
2017-Aug-12 04:30N 34°39' E 033°00'0 0.0
2017-Aug-12 04:00N 34°39' E 033°00'0 0.0
2017-Aug-12 03:30N 34°39' E 033°00'0 0.0
2017-Aug-12 03:00N 34°39' E 033°00'0 0.0
2017-Aug-12 02:30N 34°39' E 033°00'0 0.0
2017-Aug-12 02:00N 34°39' E 033°00'0 0.0
2017-Aug-12 01:30N 34°39' E 033°00'0 0.0
2017-Aug-12 01:00N 34°39' E 033°00'0 0.0
2017-Aug-12 00:30N 34°39' E 033°00'0 0.0
2017-Aug-12 00:00N 34°39' E 033°00'0 0.0
2017-Aug-11 23:30N 34°39' E 033°00'0 0.0
2017-Aug-11 23:00N 34°39' E 033°00'0 0.0
2017-Aug-11 22:30N 34°39' E 033°00'0 0.0
2017-Aug-11 22:00N 34°39' E 033°00'0 0.0
2017-Aug-11 21:30N 34°39' E 033°00'0 0.0
2017-Aug-11 21:00N 34°39' E 033°00'0 0.0
2017-Aug-11 20:30N 34°39' E 033°00'0 0.0
2017-Aug-11 20:00N 34°39' E 033°00'0 0.0
2017-Aug-11 19:30N 34°39' E 033°00'0 0.0
2017-Aug-11 19:00N 34°39' E 033°00'0 0.0
2017-Aug-11 18:30N 34°39' E 033°00'0 0.0
2017-Aug-11 18:00N 34°39' E 033°00'0 0.0
2017-Aug-11 17:30N 34°39' E 033°00'0 0.0
2017-Aug-11 17:00N 34°39' E 033°00'0 0.0
2017-Aug-11 16:30N 34°39' E 033°00'0 0.0
2017-Aug-11 16:00N 34°39' E 033°00'0 0.0
2017-Aug-11 15:30N 34°39' E 033°00'0 0.0
2017-Aug-11 14:59N 34°39' E 033°00'0 0.0
2017-Aug-11 14:30N 34°39' E 033°00'0 0.0
2017-Aug-11 13:30N 34°39' E 033°00'0 0.0
2017-Aug-11 13:00N 34°39' E 033°00'0 0.0
2017-Aug-11 12:30N 34°39' E 033°00'0 0.0
2017-Aug-11 12:00N 34°39' E 033°00'0 0.0
2017-Aug-11 11:30N 34°39' E 033°00'0 0.0
2017-Aug-11 11:00N 34°39' E 033°00'0 0.0
2017-Aug-11 10:30N 34°39' E 033°00'0 0.0
2017-Aug-11 10:00N 34°39' E 033°00'0 0.0
2017-Aug-11 09:30N 34°39' E 033°00'  

Dump ship's entire track history